Time;durP1;ratioP1;P1;durP2;ratioP2;P2;SDS_P1;SDS_P2;PMS_P1;PMS_P2;Temp;Humidity;BMP_temperature;BMP_pressure;BME280_temperature;BME280_humidity;BME280_pressure;Samples;Min_cycle;Max_cycle;Signal;HPM_P1;HPM_P2
2022/05/21 00:01:02;;;;;;;9.47;5.80;;;;;;;;;;10454576;28;20417;-81
2022/05/21 00:06:06;;;;;;;8.07;5.57;;;;;;;;;;10460057;28;20426;-82
2022/05/21 00:11:08;;;;;;;9.10;5.22;;;;;;;;;;10464599;28;20894;-82
2022/05/21 00:16:09;;;;;;;8.73;5.63;;;;;;;;;;10460827;28;20398;-82
2022/05/21 00:21:13;;;;;;;7.53;5.90;;;;;;;;;;10460625;28;20402;-82
2022/05/21 00:26:16;;;;;;;6.70;5.90;;;;;;;;;;10467744;28;20424;-82
2022/05/21 00:31:19;;;;;;;6.55;5.75;;;;;;;;;;10460076;28;20406;-81
2022/05/21 00:36:23;;;;;;;6.13;5.53;;;;;;;;;;10460277;28;20485;-82
2022/05/21 00:41:24;;;;;;;7.45;5.40;;;;;;;;;;10463661;28;20412;-81
2022/05/21 00:46:29;;;;;;;7.13;5.60;;;;;;;;;;10459159;28;20788;-82
2022/05/21 00:51:37;;;;;;;7.97;6.20;;;;;;;;;;10463303;28;20401;-82
2022/05/21 00:56:44;;;;;;;6.70;5.90;;;;;;;;;;10467388;28;20412;-82
2022/05/21 01:01:50;;;;;;;8.95;6.65;;;;;;;;;;10459792;28;20390;-81
2022/05/21 01:06:54;;;;;;;7.32;6.03;;;;;;;;;;10459632;28;20426;-82
2022/05/21 01:11:57;;;;;;;6.43;5.70;;;;;;;;;;10470543;28;20801;-82
2022/05/21 01:17:01;;;;;;;6.80;5.80;;;;;;;;;;10466799;28;20846;-82
2022/05/21 01:22:05;;;;;;;7.25;5.65;;;;;;;;;;10466896;28;20488;-82
2022/05/21 01:27:08;;;;;;;6.80;5.90;;;;;;;;;;10468382;28;20433;-82
2022/05/21 01:32:16;;;;;;;7.33;5.60;;;;;;;;;;10466150;28;20408;-82
2022/05/21 01:37:18;;;;;;;6.83;5.50;;;;;;;;;;10465187;28;20406;-82
2022/05/21 01:42:21;;;;;;;6.45;5.22;;;;;;;;;;10469143;28;20405;-81
2022/05/21 01:47:23;;;;;;;6.97;5.70;;;;;;;;;;10467430;28;20417;-82
2022/05/21 01:52:26;;;;;;;7.65;5.57;;;;;;;;;;10468176;28;20409;-81
2022/05/21 01:57:29;;;;;;;6.25;5.63;;;;;;;;;;10469411;28;20771;-82
2022/05/21 02:02:33;;;;;;;6.43;5.63;;;;;;;;;;10474242;28;20492;-82
2022/05/21 02:07:35;;;;;;;8.68;6.07;;;;;;;;;;10475727;28;20891;-81
2022/05/21 02:12:39;;;;;;;8.10;7.30;;;;;;;;;;10486361;28;20410;-82
2022/05/21 02:17:41;;;;;;;8.83;7.87;;;;;;;;;;10457474;28;20407;-82
2022/05/21 02:22:42;;;;;;;9.33;8.40;;;;;;;;;;10450280;28;20489;-81
2022/05/21 02:27:46;;;;;;;11.60;9.00;;;;;;;;;;10484291;28;20422;-82
2022/05/21 02:32:48;;;;;;;12.00;9.07;;;;;;;;;;10486715;28;20864;-81
2022/05/21 02:43:10;;;;;;;10.70;9.63;;;;;;;;;;10486422;28;20374;-81
2022/05/21 02:48:12;;;;;;;12.90;9.93;;;;;;;;;;10485760;28;20893;-82
2022/05/21 02:53:17;;;;;;;10.63;9.60;;;;;;;;;;10485547;28;20489;-81
2022/05/21 02:58:20;;;;;;;12.40;9.98;;;;;;;;;;10486317;28;20477;-82
2022/05/21 03:03:22;;;;;;;11.77;9.70;;;;;;;;;;10485743;28;20432;-81
2022/05/21 03:13:45;;;;;;;11.00;9.93;;;;;;;;;;10485655;28;20720;-82
2022/05/21 03:18:46;;;;;;;11.65;10.07;;;;;;;;;;10485079;28;20401;-81
2022/05/21 03:23:48;;;;;;;11.38;10.15;;;;;;;;;;10483960;28;20408;-81
2022/05/21 03:28:52;;;;;;;12.43;10.50;;;;;;;;;;10484119;28;20428;-81
2022/05/21 03:33:54;;;;;;;11.10;9.93;;;;;;;;;;10484401;28;20555;-81
2022/05/21 03:38:57;;;;;;;11.50;10.13;;;;;;;;;;10483708;28;20937;-81
2022/05/21 03:44:00;;;;;;;11.43;9.90;;;;;;;;;;10484040;28;20455;-82
2022/05/21 03:49:02;;;;;;;16.42;10.13;;;;;;;;;;10483658;28;20908;-82
2022/05/21 03:54:04;;;;;;;14.90;10.75;;;;;;;;;;10482536;28;20489;-82
2022/05/21 03:59:07;;;;;;;14.13;10.48;;;;;;;;;;10483597;28;20451;-82
2022/05/21 04:04:09;;;;;;;14.70;10.48;;;;;;;;;;10478467;28;20563;-82
2022/05/21 04:09:11;;;;;;;12.05;10.30;;;;;;;;;;10472874;28;20881;-82
2022/05/21 04:14:14;;;;;;;11.52;9.82;;;;;;;;;;10464912;28;20398;-82
2022/05/21 04:19:16;;;;;;;11.80;10.40;;;;;;;;;;10461696;28;20765;-81
2022/05/21 04:24:18;;;;;;;14.18;10.35;;;;;;;;;;10462950;28;20957;-82
2022/05/21 04:29:21;;;;;;;13.20;9.90;;;;;;;;;;10460359;28;20441;-82
2022/05/21 04:34:23;;;;;;;11.82;10.10;;;;;;;;;;10460336;28;20416;-82
2022/05/21 04:39:25;;;;;;;11.38;9.70;;;;;;;;;;10461521;28;20400;-82
2022/05/21 04:44:31;;;;;;;11.60;10.03;;;;;;;;;;10459239;28;20479;-82
2022/05/21 04:49:32;;;;;;;11.02;9.52;;;;;;;;;;10458660;28;20454;-82
2022/05/21 04:54:37;;;;;;;10.40;9.07;;;;;;;;;;10461405;28;20402;-82
2022/05/21 04:59:40;;;;;;;11.88;9.13;;;;;;;;;;10457104;28;21188;-82
2022/05/21 05:04:42;;;;;;;10.30;9.20;;;;;;;;;;10459281;28;20395;-82
2022/05/21 05:09:45;;;;;;;11.33;9.20;;;;;;;;;;10458855;28;20876;-82
2022/05/21 05:14:49;;;;;;;11.05;8.75;;;;;;;;;;10454493;28;20477;-82
2022/05/21 05:19:50;;;;;;;9.35;8.40;;;;;;;;;;10444610;28;20402;-81
2022/05/21 05:24:52;;;;;;;10.00;8.10;;;;;;;;;;10448106;28;20414;-82
2022/05/21 05:29:56;;;;;;;11.52;8.35;;;;;;;;;;10441046;28;20442;-83
2022/05/21 05:34:57;;;;;;;9.30;8.13;;;;;;;;;;10442690;28;20400;-82
2022/05/21 05:39:59;;;;;;;9.73;8.73;;;;;;;;;;10447798;28;20890;-82
2022/05/21 05:45:03;;;;;;;12.90;8.50;;;;;;;;;;10453242;28;20497;-83
2022/05/21 05:50:06;;;;;;;8.83;7.93;;;;;;;;;;10455078;28;20514;-81
2022/05/21 05:55:09;;;;;;;9.60;8.60;;;;;;;;;;10461077;28;20408;-81
2022/05/21 06:00:12;;;;;;;9.70;8.20;;;;;;;;;;10464936;28;20867;-81
2022/05/21 06:05:16;;;;;;;11.47;8.40;;;;;;;;;;10463449;28;20491;-81
2022/05/21 06:10:20;;;;;;;11.65;7.38;;;;;;;;;;10466872;28;20424;-81
2022/05/21 06:15:24;;;;;;;9.52;7.78;;;;;;;;;;10460472;28;20507;-81
2022/05/21 06:20:28;;;;;;;13.27;8.20;;;;;;;;;;10464791;28;20406;-81
2022/05/21 06:25:33;;;;;;;8.75;7.78;;;;;;;;;;10468689;28;20403;-81
2022/05/21 06:30:38;;;;;;;8.33;7.40;;;;;;;;;;10466300;28;20430;-81
2022/05/21 06:35:40;;;;;;;10.87;8.00;;;;;;;;;;10460311;28;20479;-82
2022/05/21 06:40:42;;;;;;;9.60;7.67;;;;;;;;;;10469927;28;20421;-81
2022/05/21 06:45:45;;;;;;;12.50;7.60;;;;;;;;;;10460973;28;20830;-80
2022/05/21 06:50:47;;;;;;;9.35;6.78;;;;;;;;;;10464709;28;20931;-80
2022/05/21 06:55:49;;;;;;;9.50;6.22;;;;;;;;;;10464337;28;20410;-79
2022/05/21 07:00:52;;;;;;;8.73;5.00;;;;;;;;;;10463191;28;20760;-80
2022/05/21 07:11:13;;;;;;;7.95;4.88;;;;;;;;;;10464780;28;20396;-81
2022/05/21 07:16:17;;;;;;;11.02;5.20;;;;;;;;;;10463057;28;20400;-89
2022/05/21 07:21:19;;;;;;;6.28;4.35;;;;;;;;;;10466828;28;20507;-90
2022/05/21 07:26:21;;;;;;;7.03;5.00;;;;;;;;;;10469230;28;20407;-91
2022/05/21 07:31:25;;;;;;;5.82;3.90;;;;;;;;;;10461982;28;20770;-91
2022/05/21 07:36:28;;;;;;;7.60;4.03;;;;;;;;;;10460750;28;20403;-91
2022/05/21 07:41:30;;;;;;;6.00;4.88;;;;;;;;;;10466327;28;20765;-90
2022/05/21 07:46:33;;;;;;;5.28;4.78;;;;;;;;;;10461361;28;20463;-92
2022/05/21 07:51:35;;;;;;;7.23;4.93;;;;;;;;;;10460539;28;20485;-92
2022/05/21 07:56:37;;;;;;;10.37;4.63;;;;;;;;;;10465240;28;20450;-94
2022/05/21 08:01:40;;;;;;;10.00;4.90;;;;;;;;;;10464831;28;20443;-93
2022/05/21 08:06:42;;;;;;;5.53;4.10;;;;;;;;;;10459642;28;20481;-92
2022/05/21 08:11:44;;;;;;;5.32;4.07;;;;;;;;;;10470623;28;20491;-89
2022/05/21 08:16:49;;;;;;;10.30;4.15;;;;;;;;;;10461361;28;20403;-88
2022/05/21 08:21:50;;;;;;;5.55;3.97;;;;;;;;;;10462092;28;20412;-83
2022/05/21 08:26:59;;;;;;;5.90;4.50;;;;;;;;;;10463623;28;20418;-83
2022/05/21 08:32:04;;;;;;;7.38;4.50;;;;;;;;;;10499539;22;20900;-91
2022/05/21 08:37:06;;;;;;;6.82;4.18;;;;;;;;;;10522350;28;20408;-83
2022/05/21 08:42:14;;;;;;;4.90;4.30;;;;;;;;;;10519154;28;20400;-80
2022/05/21 08:47:21;;;;;;;6.40;4.53;;;;;;;;;;10523076;28;20410;-80
2022/05/21 08:52:28;;;;;;;5.17;4.27;;;;;;;;;;10522994;28;20927;-83
2022/05/21 08:57:37;;;;;;;6.75;3.90;;;;;;;;;;10514763;28;20881;-80
2022/05/21 09:02:41;;;;;;;6.17;3.77;;;;;;;;;;10523200;28;20400;-81
2022/05/21 09:07:57;;;;;;;5.83;4.27;;;;;;;;;;10521893;28;20423;-81
2022/05/21 09:13:09;;;;;;;5.90;4.60;;;;;;;;;;10518501;28;20400;-81
2022/05/21 09:18:14;;;;;;;6.13;4.47;;;;;;;;;;10523601;28;20400;-81
2022/05/21 09:23:16;;;;;;;6.17;3.80;;;;;;;;;;10522437;28;20479;-80
2022/05/21 09:28:22;;;;;;;11.37;5.00;;;;;;;;;;10518402;28;20420;-80
2022/05/21 09:33:27;;;;;;;6.63;4.53;;;;;;;;;;10530807;28;20400;-82
2022/05/21 09:38:31;;;;;;;8.35;4.20;;;;;;;;;;10521149;28;20831;-80
2022/05/21 09:49:22;;;;;;;5.72;3.70;;;;;;;;;;10525743;28;20826;-80
2022/05/21 09:54:26;;;;;;;7.68;4.07;;;;;;;;;;10529218;28;20400;-80
2022/05/21 09:59:30;;;;;;;5.10;3.85;;;;;;;;;;10525774;28;20396;-79
2022/05/21 10:04:40;;;;;;;4.57;3.42;;;;;;;;;;10529045;28;20729;-79
2022/05/21 10:15:13;;;;;;;4.20;3.35;;;;;;;;;;10526963;28;20376;-82
2022/05/21 10:20:22;;;;;;;5.97;3.40;;;;;;;;;;10528631;28;20411;-84
2022/05/21 10:25:32;;;;;;;4.68;3.92;;;;;;;;;;10523219;28;20418;-85
2022/05/21 10:30:51;;;;;;;4.57;3.40;;;;;;;;;;10506639;28;20428;-81
2022/05/21 10:36:09;;;;;;;8.68;3.75;;;;;;;;;;10532687;28;20479;-81
2022/05/21 10:41:20;;;;;;;54.03;6.83;;;;;;;;;;10525073;28;20481;-81
2022/05/21 10:46:30;;;;;;;5.33;3.60;;;;;;;;;;10532058;28;21025;-92
2022/05/21 10:51:36;;;;;;;5.57;3.65;;;;;;;;;;10516903;28;20471;-92
2022/05/21 10:56:46;;;;;;;4.70;3.20;;;;;;;;;;10509920;28;20418;-92
2022/05/21 11:01:54;;;;;;;6.53;3.50;;;;;;;;;;10525790;28;20409;-92
2022/05/21 11:07:29;;;;;;;3.95;3.30;;;;;;;;;;10516049;28;20407;-84
2022/05/21 11:12:39;;;;;;;5.00;3.60;;;;;;;;;;10497074;28;20408;-80
2022/05/21 11:17:46;;;;;;;6.05;3.50;;;;;;;;;;10495168;28;20489;-81
2022/05/21 11:22:54;;;;;;;6.22;3.70;;;;;;;;;;10530019;28;20484;-94
2022/05/21 11:28:14;;;;;;;7.00;3.72;;;;;;;;;;10528140;28;20412;-95
2022/05/21 11:38:44;;;;;;;6.20;3.83;;;;;;;;;;10514631;28;20483;-93
2022/05/21 11:49:39;;;;;;;5.03;4.10;;;;;;;;;;10515743;28;20442;-95
2022/05/21 11:55:24;;;;;;;4.22;3.83;;;;;;;;;;10510813;28;20502;-96
2022/05/21 12:01:01;;;;;;;6.70;4.40;;;;;;;;;;10377128;28;20421;-96
2022/05/21 12:06:31;;;;;;;4.05;3.65;;;;;;;;;;10333241;28;20434;-80
2022/05/21 12:11:45;;;;;;;4.93;3.33;;;;;;;;;;10516933;28;20424;-95
2022/05/21 12:16:57;;;;;;;6.90;3.97;;;;;;;;;;10500901;28;20439;-81
2022/05/21 12:22:01;;;;;;;4.93;3.88;;;;;;;;;;10517066;28;20393;-80
2022/05/21 12:27:05;;;;;;;3.77;3.37;;;;;;;;;;10506972;28;20408;-84
2022/05/21 12:32:14;;;;;;;6.40;3.90;;;;;;;;;;10501509;28;20513;-84
2022/05/21 12:37:20;;;;;;;7.97;3.73;;;;;;;;;;10516239;28;20404;-86
2022/05/21 16:03:14;;;;;;;8.18;4.85;;;;;;;;;;12537299;23;20358;-95
2022/05/21 20:37:17;;;;;;;5.60;5.10;;;;;;;;;;10119558;23;20441;-92
2022/05/21 20:42:27;;;;;;;6.70;4.90;;;;;;;;;;10104992;29;20425;-91
2022/05/21 20:52:46;;;;;;;8.43;5.53;;;;;;;;;;10095946;29;20753;-92
2022/05/21 20:57:51;;;;;;;8.68;6.22;;;;;;;;;;10100635;29;20490;-92
2022/05/21 21:02:53;;;;;;;9.53;5.83;;;;;;;;;;10101458;29;20862;-91
2022/05/21 21:07:59;;;;;;;6.68;5.93;;;;;;;;;;10099526;29;20516;-92
2022/05/21 21:13:08;;;;;;;5.70;5.10;;;;;;;;;;10101968;29;21266;-91
2022/05/21 21:18:10;;;;;;;7.50;5.32;;;;;;;;;;10099986;29;20777;-92
2022/05/21 21:23:17;;;;;;;7.30;5.40;;;;;;;;;;10096958;29;20503;-92
2022/05/21 21:28:26;;;;;;;5.77;5.13;;;;;;;;;;10106554;29;20508;-92
2022/05/21 21:33:28;;;;;;;7.73;5.47;;;;;;;;;;10108665;29;20423;-91
2022/05/21 21:38:34;;;;;;;8.60;5.73;;;;;;;;;;10108770;29;20945;-92
2022/05/21 21:43:36;;;;;;;8.50;6.18;;;;;;;;;;10107860;29;20496;-92
2022/05/21 21:48:38;;;;;;;8.27;5.97;;;;;;;;;;10105954;29;20670;-92
2022/05/21 21:53:41;;;;;;;8.85;7.07;;;;;;;;;;10107317;29;20453;-92
2022/05/21 22:04:13;;;;;;;10.77;7.53;;;;;;;;;;10105411;29;20409;-91
2022/05/21 22:09:21;;;;;;;10.50;7.40;;;;;;;;;;10105270;29;20441;-91
2022/05/21 22:14:23;;;;;;;10.05;7.22;;;;;;;;;;10103083;29;20476;-91
2022/05/21 22:19:25;;;;;;;11.43;8.10;;;;;;;;;;10103111;29;20422;-91
2022/05/21 22:24:33;;;;;;;14.27;9.97;;;;;;;;;;10108049;29;20462;-91
2022/05/21 22:29:35;;;;;;;11.95;10.73;;;;;;;;;;10104708;29;20433;-91
2022/05/21 22:34:37;;;;;;;13.40;10.70;;;;;;;;;;10104145;29;20421;-91
2022/05/21 22:39:40;;;;;;;13.83;10.97;;;;;;;;;;10103314;29;20423;-91
2022/05/21 22:44:45;;;;;;;14.02;10.70;;;;;;;;;;10104393;29;20435;-92
2022/05/21 22:49:47;;;;;;;12.95;11.35;;;;;;;;;;10103603;29;20431;-93
2022/05/21 22:54:58;;;;;;;15.73;13.90;;;;;;;;;;10107398;29;20514;-92
2022/05/21 23:00:05;;;;;;;17.15;15.35;;;;;;;;;;10103674;29;21595;-92
2022/05/21 23:05:08;;;;;;;17.60;15.80;;;;;;;;;;10100388;29;20422;-93
2022/05/21 23:10:18;;;;;;;17.30;15.52;;;;;;;;;;10108070;29;20853;-93
2022/05/21 23:20:44;;;;;;;20.65;17.20;;;;;;;;;;10103068;29;20401;-92
2022/05/21 23:25:47;;;;;;;18.60;16.80;;;;;;;;;;10106984;29;20511;-92
2022/05/21 23:30:51;;;;;;;19.10;17.20;;;;;;;;;;10105943;29;21017;-93
2022/05/21 23:36:01;;;;;;;18.77;16.87;;;;;;;;;;10101695;29;20422;-92
2022/05/21 23:41:07;;;;;;;18.73;16.90;;;;;;;;;;10108671;29;20423;-92
2022/05/21 23:46:09;;;;;;;17.85;16.05;;;;;;;;;;10105199;29;20957;-92
2022/05/21 23:51:11;;;;;;;18.85;16.67;;;;;;;;;;10101369;29;20451;-92
2022/05/21 23:56:20;;;;;;;18.45;16.55;;;;;;;;;;10098479;29;20419;-92
